createdAt,value
2022-08-11T00:01:16.903Z,99.90
2022-08-11T00:04:04.873Z,99.90
2022-08-11T00:06:35.264Z,99.90
2022-08-11T00:09:05.252Z,99.90
2022-08-11T00:11:37.120Z,99.90
2022-08-11T00:14:13.441Z,99.90
2022-08-11T00:16:41.909Z,99.90
2022-08-11T00:19:09.585Z,99.90
2022-08-11T00:22:04.299Z,99.90
2022-08-11T00:24:53.508Z,99.90
2022-08-11T00:27:31.806Z,99.90
2022-08-11T00:29:58.750Z,99.90
2022-08-11T00:32:26.762Z,99.90
2022-08-11T00:35:51.761Z,99.90
2022-08-11T00:37:50.359Z,99.90
2022-08-11T00:40:28.337Z,99.90
2022-08-11T00:43:22.523Z,99.90
2022-08-11T00:46:10.644Z,99.90
2022-08-11T00:48:50.360Z,99.90
2022-08-11T00:52:04.760Z,99.90
2022-08-11T00:55:07.399Z,99.90
2022-08-11T00:58:13.033Z,99.90
2022-08-11T01:01:11.629Z,99.90
2022-08-11T01:04:09.854Z,99.90
2022-08-11T01:06:45.434Z,99.90
2022-08-11T01:09:33.602Z,99.90
2022-08-11T01:12:28.309Z,99.90
2022-08-11T01:15:00.734Z,99.90
2022-08-11T01:17:46.334Z,99.90
2022-08-11T01:20:44.865Z,99.90
2022-08-11T01:23:47.734Z,99.90
2022-08-11T01:27:00.254Z,99.90
2022-08-11T01:29:55.041Z,99.90
2022-08-11T01:32:40.234Z,99.90
2022-08-11T01:35:34.916Z,99.90
2022-08-11T01:38:34.423Z,99.90
2022-08-11T01:41:13.088Z,99.90
2022-08-11T01:44:27.925Z,99.90
2022-08-11T01:47:52.505Z,99.90
2022-08-11T01:50:54.127Z,99.90
2022-08-11T01:53:36.605Z,99.90
2022-08-11T01:56:24.984Z,99.90
2022-08-11T01:59:10.489Z,99.90
2022-08-11T02:01:40.909Z,99.90
2022-08-11T02:04:31.931Z,99.90
2022-08-11T02:07:21.267Z,99.90
2022-08-11T02:10:38.660Z,99.90
2022-08-11T02:13:41.547Z,99.90
2022-08-11T02:16:33.641Z,99.90
2022-08-11T02:19:42.689Z,99.90
2022-08-11T02:22:55.844Z,99.90
2022-08-11T02:25:46.366Z,99.90
2022-08-11T02:28:28.919Z,99.90
2022-08-11T02:32:24.276Z,99.90
2022-08-11T02:34:40.277Z,99.90
2022-08-11T02:37:24.405Z,99.90
2022-08-11T02:40:06.118Z,99.90
2022-08-11T02:42:50.532Z,99.90
2022-08-11T02:45:35.989Z,99.90
2022-08-11T02:49:12.905Z,99.90
2022-08-11T02:51:52.389Z,99.90
2022-08-11T02:54:37.973Z,99.90
2022-08-11T02:57:13.164Z,99.90
2022-08-11T03:00:07.455Z,99.90
2022-08-11T03:03:05.771Z,99.90
2022-08-11T03:06:10.875Z,99.90
2022-08-11T03:09:03.176Z,99.90
2022-08-11T03:12:11.038Z,99.90
2022-08-11T03:15:11.561Z,99.90
2022-08-11T03:18:06.384Z,99.90
2022-08-11T03:20:45.268Z,99.90
2022-08-11T03:26:19.522Z,99.90
2022-08-11T03:29:01.912Z,99.90
2022-08-11T03:31:34.140Z,99.90
2022-08-11T03:34:09.157Z,99.90
2022-08-11T03:36:55.760Z,99.90
2022-08-11T03:40:15.794Z,99.90
2022-08-11T03:42:44.117Z,99.90
2022-08-11T03:48:18.230Z,99.90
2022-08-11T03:50:59.133Z,99.90
2022-08-11T03:54:03.667Z,99.90
2022-08-11T03:57:03.296Z,99.90
2022-08-11T03:59:56.515Z,99.90
2022-08-11T04:02:55.495Z,99.90
2022-08-11T04:06:11.885Z,99.90
2022-08-11T04:08:59.962Z,99.90
2022-08-11T04:11:54.947Z,99.90
2022-08-11T04:15:07.789Z,99.90
2022-08-11T04:18:01.501Z,99.90
2022-08-11T04:20:51.785Z,99.90
2022-08-11T04:24:36.439Z,99.90
2022-08-11T04:26:47.964Z,99.90
2022-08-11T04:30:03.083Z,99.90
2022-08-11T04:32:49.375Z,99.90
2022-08-11T04:35:50.184Z,99.90
2022-08-11T04:38:37.694Z,99.90
2022-08-11T04:41:28.047Z,99.90
2022-08-11T04:44:31.788Z,99.90
2022-08-11T04:48:01.428Z,99.90
2022-08-11T04:51:16.403Z,99.90
2022-08-11T04:54:28.254Z,99.90
2022-08-11T04:57:19.596Z,99.90
2022-08-11T05:00:30.420Z,99.90
2022-08-11T05:03:35.555Z,99.90
2022-08-11T05:06:29.929Z,99.90
2022-08-11T05:09:31.778Z,99.90
2022-08-11T05:12:42.477Z,99.90
2022-08-11T05:15:55.358Z,99.90
2022-08-11T05:18:43.048Z,99.90
2022-08-11T05:21:44.296Z,99.90
2022-08-11T05:24:39.737Z,99.90
2022-08-11T05:27:27.907Z,99.90
2022-08-11T05:30:23.157Z,99.90
2022-08-11T05:33:29.312Z,99.90
2022-08-11T05:36:05.661Z,99.90
2022-08-11T05:38:53.681Z,99.90
2022-08-11T05:41:45.868Z,99.90
2022-08-11T05:44:37.768Z,99.90
2022-08-11T05:47:23.815Z,99.90
2022-08-11T05:50:13.804Z,99.90
2022-08-11T05:53:04.645Z,99.90
2022-08-11T05:56:02.441Z,99.90
2022-08-11T05:58:42.582Z,99.90
2022-08-11T06:01:22.939Z,99.90
2022-08-11T06:04:11.267Z,99.90
2022-08-11T06:06:45.173Z,99.90
2022-08-11T06:09:14.445Z,99.90
2022-08-11T06:14:13.104Z,99.90
2022-08-11T06:16:42.822Z,99.90
2022-08-11T06:19:11.138Z,99.90
2022-08-11T06:24:11.886Z,99.90
2022-08-11T06:27:08.747Z,99.90
2022-08-11T06:29:37.999Z,99.90
2022-08-11T06:35:07.616Z,99.90
2022-08-11T06:40:33.320Z,99.90
2022-08-11T06:43:18.022Z,99.90
2022-08-11T06:46:11.988Z,99.90
2022-08-11T06:48:55.919Z,99.90
2022-08-11T06:51:23.952Z,99.50
2022-08-11T06:54:04.501Z,97.90
2022-08-11T07:00:03.683Z,95.50
2022-08-11T07:02:49.263Z,95.30
2022-08-11T07:05:37.096Z,93.60
2022-08-11T07:08:56.166Z,93.60
2022-08-11T07:12:04.790Z,92.60
2022-08-11T07:14:51.477Z,92.30
2022-08-11T07:17:23.075Z,91.90
2022-08-11T07:20:18.412Z,91.30
2022-08-11T07:23:13.263Z,90.60
2022-08-11T07:26:01.209Z,90.70
2022-08-11T07:28:49.294Z,90.70
2022-08-11T07:31:36.022Z,90.40
2022-08-11T07:34:18.523Z,88.70
2022-08-11T07:36:59.440Z,90.00
2022-08-11T07:39:29.213Z,90.00
2022-08-11T07:41:58.628Z,89.50
2022-08-11T07:44:34.371Z,87.90
2022-08-11T07:47:21.311Z,86.80
2022-08-11T07:50:09.126Z,85.90
2022-08-11T07:52:38.083Z,86.20
2022-08-11T07:55:17.308Z,85.80
2022-08-11T07:58:16.839Z,83.80
2022-08-11T08:01:22.038Z,84.80
2022-08-11T08:04:09.417Z,84.20
2022-08-11T08:06:56.529Z,84.20
2022-08-11T08:09:43.695Z,82.50
2022-08-11T08:12:31.175Z,81.70
2022-08-11T08:15:17.183Z,80.90
2022-08-11T08:18:09.217Z,81.00
2022-08-11T08:20:50.051Z,80.70
2022-08-11T08:23:33.313Z,81.00
2022-08-11T08:26:30.431Z,79.80
2022-08-11T08:29:20.813Z,79.60
2022-08-11T08:31:49.470Z,77.30
2022-08-11T08:34:17.704Z,75.90
2022-08-11T08:36:50.360Z,74.90
2022-08-11T08:39:21.837Z,74.60
2022-08-11T08:41:59.292Z,74.70
2022-08-11T08:44:38.388Z,74.40
2022-08-11T08:47:10.524Z,73.20
2022-08-11T08:52:19.470Z,72.90
2022-08-11T08:52:43.593Z,72.50
2022-08-11T08:55:17.126Z,69.70
2022-08-11T08:57:45.591Z,68.60
2022-08-11T09:00:19.374Z,67.60
2022-08-11T09:02:49.603Z,69.70
2022-08-11T09:05:19.230Z,70.60
2022-08-11T09:07:51.077Z,69.20
2022-08-11T09:10:19.962Z,68.00
2022-08-11T09:12:48.273Z,66.90
2022-08-11T09:15:19.441Z,68.20
2022-08-11T09:18:01.413Z,66.90
2022-08-11T09:20:34.232Z,65.70
2022-08-11T09:24:08.387Z,65.50
2022-08-11T09:26:33.901Z,63.70
2022-08-11T09:29:01.681Z,63.00
2022-08-11T09:31:37.224Z,62.90
2022-08-11T09:34:06.979Z,65.40
2022-08-11T09:36:53.611Z,67.30
2022-08-11T09:39:38.992Z,65.50
2022-08-11T09:42:06.681Z,66.40
2022-08-11T09:59:47.665Z,68.10
2022-08-11T10:02:15.984Z,65.20
2022-08-11T10:04:46.587Z,63.70
2022-08-11T10:07:19.103Z,65.00
2022-08-11T10:09:51.483Z,66.30
2022-08-11T10:12:29.618Z,65.10
2022-08-11T10:15:20.803Z,62.20
2022-08-11T10:18:11.068Z,62.90
2022-08-11T10:20:39.194Z,62.70
2022-08-11T10:23:27.058Z,64.00
2022-08-11T10:26:12.610Z,63.50
2022-08-11T10:29:02.108Z,63.80
2022-08-11T10:31:57.163Z,59.70
2022-08-11T10:34:29.114Z,58.10
2022-08-11T10:36:58.375Z,56.70
2022-08-11T10:39:27.296Z,57.90
2022-08-11T10:42:22.387Z,57.70
2022-08-11T10:44:58.825Z,57.40
2022-08-11T10:47:35.187Z,57.10
2022-08-11T10:50:30.525Z,56.10
2022-08-11T10:53:18.150Z,56.20
2022-08-11T10:56:05.700Z,57.00
2022-08-11T10:58:45.469Z,56.40
2022-08-11T11:01:14.568Z,56.40
2022-08-11T11:03:43.019Z,56.30
2022-08-11T11:06:28.430Z,56.00
2022-08-11T11:09:05.235Z,56.00
2022-08-11T11:11:57.850Z,56.30
2022-08-11T11:14:49.771Z,56.00
2022-08-11T11:18:01.701Z,56.20
2022-08-11T11:20:42.652Z,56.90
2022-08-11T11:23:33.398Z,56.90
2022-08-11T11:26:34.277Z,58.70
2022-08-11T11:29:25.291Z,57.20
2022-08-11T11:32:30.295Z,57.70
2022-08-11T11:35:15.730Z,56.40
2022-08-11T11:38:00.949Z,58.50
2022-08-11T11:40:33.585Z,56.70
2022-08-11T11:43:01.457Z,56.00
2022-08-11T11:45:29.105Z,55.10
2022-08-11T11:47:59.473Z,54.50
2022-08-11T11:50:33.131Z,54.70
2022-08-11T11:53:01.943Z,57.40
2022-08-11T11:55:30.362Z,55.30
2022-08-11T11:58:19.104Z,54.90
2022-08-11T12:01:06.044Z,54.80
2022-08-11T12:03:34.501Z,54.20
2022-08-11T12:06:02.621Z,53.90
2022-08-11T12:08:30.491Z,55.50
2022-08-11T12:11:21.877Z,56.00
2022-08-11T12:13:53.661Z,54.70
2022-08-11T12:16:34.770Z,55.20
2022-08-11T12:19:10.491Z,54.50
2022-08-11T12:21:38.577Z,55.30
2022-08-11T12:24:28.452Z,54.40
2022-08-11T12:27:17.684Z,54.10
2022-08-11T12:29:55.138Z,52.90
2022-08-11T12:32:26.053Z,52.40
2022-08-11T12:34:53.805Z,52.30
2022-08-11T12:37:24.484Z,54.40
2022-08-11T12:40:42.822Z,53.30
2022-08-11T12:43:37.753Z,52.70
2022-08-11T12:46:12.586Z,53.80
2022-08-11T12:49:07.808Z,54.80
2022-08-11T12:52:11.977Z,52.20
2022-08-11T12:55:02.801Z,51.20
2022-08-11T12:57:56.056Z,52.10
2022-08-11T13:00:43.161Z,52.80
2022-08-11T13:03:30.716Z,52.80
2022-08-11T13:06:00.832Z,51.70
2022-08-11T13:08:30.568Z,50.90
2022-08-11T13:11:18.468Z,51.00
2022-08-11T13:13:53.699Z,50.70
2022-08-11T13:16:54.460Z,50.30
2022-08-11T13:19:23.111Z,51.00
2022-08-11T13:21:52.126Z,50.80
2022-08-11T13:24:20.164Z,50.60
2022-08-11T13:26:50.304Z,49.80
2022-08-11T13:29:20.032Z,49.40
2022-08-11T13:31:48.187Z,49.20
2022-08-11T13:34:20.635Z,49.60
2022-08-11T13:36:52.171Z,49.90
2022-08-11T13:39:20.674Z,50.80
2022-08-11T13:41:49.334Z,51.10
2022-08-11T13:44:23.144Z,51.40
2022-08-11T13:46:52.824Z,51.10
2022-08-11T13:49:21.900Z,50.40
2022-08-11T13:51:49.141Z,51.00
2022-08-11T13:54:30.974Z,50.80
2022-08-11T13:57:02.077Z,49.10
2022-08-11T13:59:31.215Z,48.60
2022-08-11T14:02:28.621Z,49.10
2022-08-11T14:04:58.929Z,50.20
2022-08-11T14:07:34.445Z,51.00
2022-08-11T14:10:02.546Z,49.40
2022-08-11T14:12:52.983Z,49.20
2022-08-11T14:15:27.656Z,49.20
2022-08-11T14:18:09.215Z,48.50
2022-08-11T14:20:58.453Z,48.90
2022-08-11T14:23:41.239Z,49.40
2022-08-11T14:26:28.100Z,49.10
2022-08-11T14:29:00.177Z,49.20
2022-08-11T14:31:29.424Z,49.40
2022-08-11T14:33:59.915Z,49.90
2022-08-11T14:36:59.843Z,50.20
2022-08-11T14:39:29.041Z,51.90
2022-08-11T14:42:17.930Z,51.70
2022-08-11T14:45:02.983Z,52.20
2022-08-11T14:47:33.661Z,51.20
2022-08-11T14:50:11.027Z,50.80
2022-08-11T14:52:45.776Z,51.30
2022-08-11T14:55:32.549Z,51.20
2022-08-11T14:58:00.540Z,50.50
2022-08-11T15:00:27.994Z,50.70
2022-08-11T15:03:11.923Z,50.70
2022-08-11T15:05:56.399Z,51.50
2022-08-11T15:08:46.445Z,52.40
2022-08-11T15:11:33.141Z,51.50
2022-08-11T15:14:02.763Z,51.70
2022-08-11T15:16:48.335Z,51.10
2022-08-11T15:19:15.888Z,51.10
2022-08-11T15:22:01.590Z,51.80
2022-08-11T15:24:30.921Z,51.30
2022-08-11T15:27:19.447Z,51.50
2022-08-11T15:30:06.893Z,51.60
2022-08-11T15:32:54.540Z,51.50
2022-08-11T15:35:39.949Z,51.10
2022-08-11T15:38:11.630Z,51.20
2022-08-11T15:41:00.193Z,50.90
2022-08-11T15:44:14.193Z,51.00
2022-08-11T15:46:45.712Z,51.10
2022-08-11T15:49:23.704Z,50.90
2022-08-11T15:52:03.935Z,51.10
2022-08-11T15:54:33.687Z,51.20
2022-08-11T15:57:02.211Z,51.60
2022-08-11T15:59:52.356Z,51.70
2022-08-11T16:02:28.087Z,51.90
2022-08-11T16:04:56.770Z,52.50
2022-08-11T16:07:27.341Z,52.10
2022-08-11T16:10:07.541Z,51.50
2022-08-11T16:13:21.747Z,51.30
2022-08-11T16:16:13.888Z,51.10
2022-08-11T16:18:52.135Z,51.80
2022-08-11T16:21:34.946Z,51.60
2022-08-11T16:24:06.438Z,52.30
2022-08-11T16:27:10.604Z,52.10
2022-08-11T16:29:25.416Z,52.00
2022-08-11T16:32:13.388Z,52.50
2022-08-11T16:34:59.680Z,52.20
2022-08-11T16:37:45.897Z,52.10
2022-08-11T16:40:13.567Z,52.00
2022-08-11T16:43:10.480Z,52.40
2022-08-11T16:46:12.617Z,52.20
2022-08-11T16:48:43.101Z,51.40
2022-08-11T16:51:12.942Z,50.90
2022-08-11T16:54:03.593Z,51.30
2022-08-11T16:56:38.722Z,51.70
2022-08-11T16:59:17.353Z,52.50
2022-08-11T17:01:59.287Z,52.70
2022-08-11T17:04:57.105Z,53.00
2022-08-11T17:07:44.853Z,52.60
2022-08-11T17:10:56.678Z,53.20
2022-08-11T17:13:33.648Z,53.30
2022-08-11T17:16:10.172Z,53.70
2022-08-11T17:18:45.698Z,53.90
2022-08-11T17:21:18.037Z,53.70
2022-08-11T17:23:50.600Z,53.80
2022-08-11T17:26:21.018Z,53.70
2022-08-11T17:28:52.954Z,54.10
2022-08-11T17:31:40.226Z,54.70
2022-08-11T17:34:31.640Z,55.30
2022-08-11T17:37:00.215Z,55.60
2022-08-11T17:39:30.711Z,55.50
2022-08-11T17:42:18.365Z,55.80
2022-08-11T17:45:05.798Z,56.20
2022-08-11T17:47:53.086Z,56.50
2022-08-11T17:50:21.435Z,55.80
2022-08-11T17:53:07.460Z,56.70
2022-08-11T17:55:54.390Z,56.90
2022-08-11T17:58:40.318Z,56.90
2022-08-11T18:01:09.239Z,56.20
2022-08-11T18:03:39.876Z,58.00
2022-08-11T18:06:12.562Z,57.30
2022-08-11T18:09:03.122Z,57.40
2022-08-11T18:12:10.763Z,57.50
2022-08-11T18:14:58.844Z,58.00
2022-08-11T18:17:44.071Z,59.10
2022-08-11T18:20:29.578Z,58.20
2022-08-11T18:23:16.794Z,59.10
2022-08-11T18:26:07.130Z,58.80
2022-08-11T18:29:03.623Z,59.10
2022-08-11T18:31:53.060Z,59.30
2022-08-11T18:34:45.774Z,59.60
2022-08-11T18:37:45.093Z,60.10
2022-08-11T18:40:35.996Z,61.10
2022-08-11T18:43:27.389Z,61.30
2022-08-11T18:46:19.456Z,62.20
2022-08-11T18:49:15.304Z,62.00
2022-08-11T18:52:06.418Z,62.00
2022-08-11T18:54:55.224Z,61.50
2022-08-11T18:57:49.894Z,62.50
2022-08-11T19:00:45.150Z,62.80
2022-08-11T19:03:32.850Z,63.20
2022-08-11T19:06:38.978Z,63.00
2022-08-11T19:09:30.676Z,63.50
2022-08-11T19:12:18.942Z,63.90
2022-08-11T19:15:06.406Z,64.20
2022-08-11T19:17:54.306Z,63.80
2022-08-11T19:20:43.238Z,63.70
2022-08-11T19:23:30.767Z,63.50
2022-08-11T19:26:18.616Z,63.40
2022-08-11T19:29:06.494Z,64.60
2022-08-11T19:31:52.899Z,65.00
2022-08-11T19:34:41.605Z,65.40
2022-08-11T19:37:28.259Z,65.60
2022-08-11T19:40:18.277Z,65.50
2022-08-11T19:43:04.592Z,65.60
2022-08-11T19:46:11.706Z,66.10
2022-08-11T19:48:57.396Z,66.70
2022-08-11T19:51:43.244Z,66.60
2022-08-11T19:54:29.252Z,66.20
2022-08-11T19:57:15.709Z,66.20
2022-08-11T20:00:02.192Z,66.40
2022-08-11T20:02:48.325Z,66.60
2022-08-11T20:05:33.584Z,67.60
2022-08-11T20:08:19.533Z,67.60
2022-08-11T20:11:06.714Z,67.50
2022-08-11T20:13:53.791Z,68.10
2022-08-11T20:16:40.591Z,68.60
2022-08-11T20:19:55.481Z,69.10
2022-08-11T20:22:35.084Z,69.90
2022-08-11T20:25:22.469Z,70.90
2022-08-11T20:28:08.736Z,71.60
2022-08-11T20:30:55.054Z,72.10
2022-08-11T20:33:42.477Z,72.80
2022-08-11T20:36:30.755Z,73.50
2022-08-11T20:39:18.688Z,74.70
2022-08-11T20:42:06.233Z,75.90
2022-08-11T20:44:52.994Z,76.00
2022-08-11T20:47:59.755Z,76.70
2022-08-11T20:50:46.792Z,77.20
2022-08-11T20:53:35.632Z,77.80
2022-08-11T20:56:28.734Z,78.70
2022-08-11T20:59:18.139Z,79.60
2022-08-11T21:02:09.502Z,80.40
2022-08-11T21:04:56.842Z,81.10
2022-08-11T21:07:56.653Z,81.80
2022-08-11T21:10:46.915Z,82.40
2022-08-11T21:13:36.958Z,82.90
2022-08-11T21:16:26.248Z,83.70
2022-08-11T21:19:59.984Z,84.10
2022-08-11T21:22:35.677Z,84.90
2022-08-11T21:25:25.466Z,85.70
2022-08-11T21:28:11.909Z,86.30
2022-08-11T21:30:58.363Z,87.00
2022-08-11T21:33:47.084Z,87.60
2022-08-11T21:36:34.057Z,88.50
2022-08-11T21:39:24.769Z,88.60
2022-08-11T21:42:13.188Z,89.80
2022-08-11T21:45:00.906Z,90.00
2022-08-11T21:47:48.427Z,90.30
2022-08-11T21:50:33.937Z,90.50
2022-08-11T21:53:19.902Z,90.60
2022-08-11T21:56:06.007Z,90.80
2022-08-11T21:58:52.051Z,91.10
2022-08-11T22:01:37.842Z,91.20
2022-08-11T22:04:24.351Z,91.70
2022-08-11T22:07:09.985Z,92.20
2022-08-11T22:09:56.248Z,91.90
2022-08-11T22:12:44.937Z,92.00
2022-08-11T22:15:31.249Z,92.20
2022-08-11T22:18:17.062Z,92.20
2022-08-11T22:21:03.442Z,92.30
2022-08-11T22:23:53.832Z,92.60
2022-08-11T22:26:41.267Z,93.20
2022-08-11T22:29:49.949Z,93.70
2022-08-11T22:32:35.777Z,94.10
2022-08-11T22:35:22.815Z,94.40
2022-08-11T22:38:08.479Z,94.80
2022-08-11T22:40:54.593Z,95.20
2022-08-11T22:43:40.103Z,95.70
2022-08-11T22:46:25.658Z,96.20
2022-08-11T22:49:12.479Z,96.70
2022-08-11T22:52:01.439Z,97.10
2022-08-11T22:54:48.200Z,97.50
2022-08-11T22:57:34.929Z,97.90
2022-08-11T23:00:20.492Z,98.20
2022-08-11T23:03:06.624Z,98.70
2022-08-11T23:05:56.925Z,99.20
2022-08-11T23:08:42.967Z,99.70
2022-08-11T23:11:28.663Z,99.90
2022-08-11T23:14:34.344Z,99.90
2022-08-11T23:17:19.993Z,99.90
2022-08-11T23:20:23.072Z,99.90
2022-08-11T23:23:11.796Z,99.90
2022-08-11T23:25:59.292Z,99.90
2022-08-11T23:28:46.642Z,99.90
2022-08-11T23:31:50.496Z,99.90
2022-08-11T23:35:03.514Z,99.90
2022-08-11T23:38:03.681Z,99.90
2022-08-11T23:40:49.164Z,99.90
2022-08-11T23:43:42.361Z,99.90
2022-08-11T23:46:28.706Z,99.90
2022-08-11T23:49:21.533Z,99.90
2022-08-11T23:52:08.444Z,99.90
2022-08-11T23:54:54.539Z,99.90
2022-08-11T23:57:47.729Z,99.90
